Tiempo atmosférico en la estación meteorológica de Moià, Barcelona (735 m.)



Fecha
DESCASC
Temp. máxima en grados centígrados (hora)
DESCASC
Temp. mínima en grados centígrados (hora)
DESCASC
Temp. media en grados centígrados
DESCASC
Racha de viento máxima en m/sg (hora)
DESCASC
Velocidad máxima media en intervalos de 10 minutos(hora)
DESCASC
Precipitaciones diarias en mm
DESCASC
Precipitaciones de 00:00 a 06:00 en mm
DESCASC
Precipitaciones de 06:00 a 12:00 en mm
DESCASC
Precipitaciones de 12:00 a 18:00 en mm
DESCASC
Precipitaciones de 18:00 a 24:00 en mm
DESCASC
16-01-2020 12.8 (15:40) 1.8 (07:50) 7.3 7.78 (16:10) 5 (15:20) 0 0 0 0 0
15-01-2020 10.3 (15:10) 0.5 (07:00) 5.4 6.39 (14:30) 4.44 (14:40) 0 0 0 0 0
14-01-2020 10.1 (15:00) 0.2 (08:30) 5.2 6.39 (14:00) 3.89 (14:30) 0 0 0 0 0
13-01-2020 9.5 (12:20) -0.5 (06:40) 4.5 4.17 (15:10) 2.5 (15:10) 0 0 0 0 0
12-01-2020 11.9 (14:10) -1.2 (-00:0) 5.3 4.44 (21:50) 2.78 (21:50) 0 0 0 0 0
11-01-2020 7.2 (15:50) -0.1 (00:00) 3.5 4.17 (03:20) 2.22 (16:00) 0.2 0.2 0 0 0
10-01-2020 8 (15:10) 1.3 (00:00) 4.6 5.83 (16:00) 3.06 (15:20) 11.6 0 11.6 0 0
09-01-2020 12.7 (14:00) 3.5 (00:00) 8.1 7.22 (14:50) 4.44 (14:50) 0 0 0 0 0
08-01-2020 14 (14:00) 5.2 (00:00) 9.6 4.44 (13:30) 3.06 (14:50) 0 0 0 0 0
07-01-2020 12.8 (16:00) 2.3 (00:00) 7.6 4.44 (12:50) 3.33 (12:50) 0 0 0 0 0
06-01-2020 12.8 (15:10) 2.6 (00:00) 7.7 3.61 (16:00) 2.22 (12:40) 0 0 0 0 0
05-01-2020 15.9 (14:50) -1 (-00:0) 7.4 4.17 (16:20) 1.94 (12:50) 0 0 0 0 0
04-01-2020 12.7 (13:00) 1.6 (00:00) 7.1 5.83 (16:00) 3.06 (16:10) 0 0 0 0 0
03-01-2020 8.8 (13:50) 0.9 (00:00) 4.9 4.17 (12:10) 3.06 (12:10) 0 0 0 0 0
02-01-2020 10 (15:10) 1 (00:00) 5.5 3.89 (13:50) 2.22 (13:10) 0 0 0 0 0
01-01-2020 12.4 (14:10) -1.7 (-00:0) 5.3 3.89 (15:10) 1.94 (03:40) 0 0 0 0 0
31-12-2019 5.3 (12:50) 0.9 (00:00) 3.1 4.44 (14:30) 2.5 (14:10) 0 0 0 0 0
30-12-2019 9.7 (15:50) 2.3 (00:00) 6 5 (11:50) 2.78 (13:00) 0 0 0 0 0
29-12-2019 10 (15:40) 4.5 (00:00) 7.3 3.61 (14:00) 2.22 (14:00) 0 0 0 0 0
28-12-2019 14 (13:20) 4.3 (00:00) 9.2 5.28 (14:40) 2.5 (14:40) 0 0 0 0 0
27-12-2019 12.2 (16:10) 2.3 (00:00) 7.2 4.17 (12:10) 2.78 (12:10) 0 0 0 0 0
26-12-2019 15.4 (13:10) 4.9 (00:00) 10.1 4.44 (17:20) 2.22 (17:20) 0 0 0 0 0
25-12-2019 16 (13:00) 5.5 (00:00) 10.8 3.89 (14:30) 2.5 (13:20) 0 0 0 0 0
24-12-2019 12.3 (14:10) 4.6 (00:00) 8.5 5.83 (11:30) 3.89 (11:30) 0 0 0 0 0
23-12-2019 11 (16:20) 3 (00:00) 7 6.67 (11:20) 4.17 (13:50) 0 0 0 0 0
22-12-2019 11.5 (13:10) 6.4 (00:00) 9 14.72 (02:30) 8.33 (15:30) 0 0 0 0 0
21-12-2019 13 (13:10) 6.9 (00:00) 10 18.61 (21:00) 10.56 (20:50) 3.2 0.2 0.2 1.8 1
20-12-2019 12.6 (14:40) 7.8 (00:00) 10.2 16.11 (07:30) 9.44 (10:20) 19.8 9.8 5.8 0 4.2
19-12-2019 12.3 (11:40) 6.2 (07:50) 9.3 6.94 (22:20) 3.89 (12:50) 0.4 0 0 0 0.4

Gráficas

Temp. máximas Temp. mínimas Temp. medias Precipitaciones Rachas de viento máximas Velocidades máximas media en intervalos de 10 minutos

Datos horarios

Fecha y hora oficial Temperatura (ºC) Velocidad del viento (km/h) Dirección del viento Racha (km/h) Dirección de racha Precipitación (mm) Presión (hPa) Tendencia (hPa) Humedad (%)
2020-01-17 23:00:00 2.9 2 Norte 8 Norte 0 -- -- 77
2020-01-17 22:00:00 4.2 0 Calma 9 Noroeste 0 -- -- 73
2020-01-17 21:00:00 5 6 Norte 12 Oeste 0 -- -- 75
2020-01-17 20:00:00 6.4 8 Noroeste 14 Oeste 0 -- -- 75
2020-01-17 19:00:00 7.1 6 Oeste 17 Sudoeste 0 -- -- 77
2020-01-17 18:00:00 8.4 5 Oeste 28 Sudoeste 0 -- -- 76
2020-01-17 17:00:00 9.6 18 Oeste 40 Oeste 0 -- -- 73
2020-01-17 16:00:00 10.5 23 Oeste 38 Oeste 0 -- -- 66
2020-01-17 15:00:00 11.3 23 Oeste 45 Oeste 0 -- -- 66
2020-01-17 14:00:00 11.4 22 Oeste 37 Oeste 0 -- -- 66
2020-01-17 13:00:00 10.6 20 Oeste 35 Oeste 0 -- -- 68
2020-01-17 12:00:00 10.1 16 Oeste 32 Oeste 0 -- -- 69
2020-01-17 11:00:00 9.4 13 Oeste 21 Oeste 0 -- -- 72
2020-01-17 10:00:00 8.1 10 Oeste 21 Oeste 0 -- -- 80
2020-01-17 09:00:00 6.1 5 Oeste 13 Oeste 0 -- -- 91
2020-01-17 08:00:00 4.9 5 Noroeste 12 Noroeste 0 -- -- 92
2020-01-17 07:00:00 5.3 2 Norte 8 Oeste 0 -- -- 91
2020-01-17 06:00:00 5.6 4 Noroeste 9 Noroeste 0 -- -- 93
2020-01-17 05:00:00 4.5 0 Calma 5 Norte 0 -- -- 92
2020-01-17 04:00:00 5.5 3 Noroeste 9 Oeste 0 -- -- 90
2020-01-17 03:00:00 6.3 5 Noroeste 9 Noroeste 0 -- -- 90
2020-01-17 02:00:00 5.9 3 Oeste 10 Oeste 0 -- -- 91
2020-01-17 01:00:00 4.6 3 Norte 5 Norte 0 -- -- 93
2020-01-17 00:00:00 5.1 3 Norte 6 Nordeste 0 -- -- 92
2020-01-16 23:00:00 5.7 4 Nordeste 5 Nordeste 0 -- -- 92
2020-01-16 22:00:00 6.2 0 Calma 5 Norte 0 -- -- 89
2020-01-16 21:00:00 6.6 4 Nordeste 5 Norte 0 -- -- 87
2020-01-16 20:00:00 7.2 3 Nordeste 9 Sudoeste 0 -- -- 84
2020-01-16 19:00:00 7.9 2 Sur 9 Sudoeste 0 -- -- 82
2020-01-16 18:00:00 10.5 7 Oeste 20 Oeste 0 -- -- 72
2020-01-16 17:00:00 12.2 15 Oeste 28 Sudoeste 0 -- -- 65
2020-01-16 16:00:00 12.7 18 Oeste 28 Sudoeste 0 -- -- 62
2020-01-16 15:00:00 12.5 17 Oeste 26 Oeste 0 -- -- 61
2020-01-16 14:00:00 12.5 14 Oeste 24 Sudoeste 0 -- -- 59
2020-01-16 13:00:00 11.6 13 Oeste 23 Oeste 0 -- -- 61
2020-01-16 12:00:00 9.9 5 Sudoeste 9 Sudoeste 0 -- -- 63
2020-01-16 11:00:00 8.1 4 Sudoeste 9 Oeste 0 -- -- 72
2020-01-16 10:00:00 6.9 7 Oeste 10 Oeste 0 -- -- 74
2020-01-16 09:00:00 3.5 0 Calma 6 Norte 0 -- -- 90
2020-01-16 08:00:00 1.9 0 Calma 6 Nordeste 0 -- -- 91
2020-01-16 07:00:00 2.3 4 Norte 5 Nordeste 0 -- -- 88
2020-01-16 06:00:00 2.2 2 Norte 6 Nordeste 0 -- -- 89
2020-01-16 05:00:00 2.9 0 Calma 8 Noroeste 0 -- -- 86
2020-01-16 04:00:00 2.8 3 Norte 6 Norte 0 -- -- 86
2020-01-16 03:00:00 2.8 2 Norte 6 Norte 0 -- -- 86
2020-01-16 02:00:00 2.9 2 Oeste 6 Norte 0 -- -- 86
2020-01-16 01:00:00 2.9 4 Norte 7 Norte 0 -- -- 85
2020-01-16 00:00:00 3.4 3 Nordeste 6 Nordeste 0 -- -- 83
2020-01-15 23:00:00 3.4 4 Oeste 9 Norte 0 -- -- 85
2020-01-15 22:00:00 3.1 3 Noroeste 8 Noroeste 0 -- -- 86
2020-01-15 21:00:00 3.7 4 Noroeste 9 Oeste 0 -- -- 82
2020-01-15 20:00:00 4.7 3 Norte 13 Noroeste 0 -- -- 78
2020-01-15 19:00:00 5.5 3 Norte 12 Oeste 0 -- -- 77
2020-01-15 18:00:00 6.6 4 Noroeste 9 Oeste 0 -- -- 72
2020-01-15 17:00:00 9.3 4 Oeste 22 Oeste 0 -- -- 64
2020-01-15 16:00:00 9.7 9 Oeste 21 Oeste 0 -- -- 62
2020-01-15 15:00:00 9.9 9 Oeste 23 Oeste 0 -- -- 59
2020-01-15 14:00:00 8.8 13 Oeste 22 Sudoeste 0 -- -- 62
2020-01-15 13:00:00 7.3 8 Oeste 13 Oeste 0 -- -- 66
2020-01-15 12:00:00 6.8 8 Sudoeste 12 Sudoeste 0 -- -- 68
2020-01-15 11:00:00 5.9 3 Sur 6 Sur 0 -- -- 76
2020-01-15 10:00:00 4.2 2 Sudeste 4 Sudeste 0 -- -- 94
2020-01-15 09:00:00 1.6 0 Calma 5 Oeste 0 -- -- 98
2020-01-15 08:00:00 0.7 0 Calma 4 Norte 0 -- -- 98
2020-01-15 07:00:00 0.5 0 Calma 4 Norte 0 -- -- 97
2020-01-15 06:00:00 1.4 3 Norte 6 Norte 0 -- -- 97
2020-01-15 05:00:00 2.3 4 Norte 8 Norte 0 -- -- 97
2020-01-15 04:00:00 2.4 4 Norte 7 Norte 0 -- -- 97
2020-01-15 03:00:00 3 4 Nordeste 9 Nordeste 0 -- -- 96
2020-01-15 02:00:00 3.4 6 Nordeste 10 Nordeste 0 -- -- 95
2020-01-15 01:00:00 3.4 6 Nordeste 9 Nordeste 0 -- -- 93
2020-01-15 00:00:00 3.5 5 Nordeste 9 Nordeste 0 -- -- 89
2020-01-14 23:00:00 3.3 5 Nordeste 8 Nordeste 0 -- -- 79
2020-01-14 22:00:00 3.4 5 Nordeste 9 Norte 0 -- -- 76
2020-01-14 21:00:00 3.3 2 Nordeste 5 Este 0 -- -- 74
2020-01-14 20:00:00 4 0 Calma 9 Oeste 0 -- -- 71
2020-01-14 19:00:00 5.2 0 Calma 9 Oeste 0 -- -- 65
2020-01-14 18:00:00 6.9 0 Calma 9 Oeste 0 -- -- 60
2020-01-14 17:00:00 10.1 7 Oeste 16 Oeste 0 -- -- 49
2020-01-14 16:00:00 10 11 Oeste 19 Oeste 0 -- -- 50
2020-01-14 15:00:00 10.1 10 Oeste 23 Oeste 0 -- -- 50
2020-01-14 14:00:00 9.9 13 Oeste 23 Oeste 0 -- -- 53
2020-01-14 13:00:00 8.6 9 Oeste 17 Oeste 0 -- -- 54
2020-01-14 12:00:00 6.7 10 Oeste 23 Oeste 0 -- -- 61
2020-01-14 11:00:00 5.5 10 Oeste 17 Oeste 0 -- -- 65
2020-01-14 10:00:00 4.3 8 Oeste 19 Oeste 0 -- -- 67
2020-01-14 09:00:00 2 3 Noroeste 9 Oeste 0 -- -- 78
2020-01-14 08:00:00 0.4 0 Calma 5 Norte 0 -- -- 80
2020-01-14 07:00:00 0.5 3 Nordeste 5 Norte 0 -- -- 78
2020-01-14 06:00:00 0.6 3 Noroeste 6 Noroeste 0 -- -- 79
2020-01-14 05:00:00 0.8 2 Nordeste 6 Norte 0 -- -- 78
2020-01-14 04:00:00 1.3 4 Noroeste 6 Noroeste 0 -- -- 76
2020-01-14 03:00:00 2.3 4 Noroeste 9 Noroeste 0 -- -- 71
2020-01-14 02:00:00 3.1 6 Noroeste 13 Noroeste 0 -- -- 68
2020-01-14 01:00:00 3.2 6 Noroeste 12 Oeste 0 -- -- 73
2020-01-14 00:00:00 1.9 3 Oeste 9 Noroeste 0 -- -- 82
2020-01-13 23:00:00 3 4 Noroeste 10 Oeste 0 -- -- 78
2020-01-13 22:00:00 2.6 0 Calma 10 Oeste 0 -- -- 81
2020-01-13 21:00:00 2.7 3 Noroeste 5 Noroeste 0 -- -- 82
2020-01-13 20:00:00 3.4 4 Norte 6 Norte 0 -- -- 79
2020-01-13 19:00:00 4.8 3 Noroeste 9 Oeste 0 -- -- 73
2020-01-13 18:00:00 5.3 4 Noroeste 9 Oeste 0 -- -- 69
2020-01-13 17:00:00 6.6 4 Noroeste 11 Oeste 0 -- -- 64
2020-01-13 16:00:00 7.6 8 Oeste 15 Oeste 0 -- -- 57
2020-01-13 15:00:00 8.4 6 Oeste 14 Oeste 0 -- -- 50
2020-01-13 14:00:00 8.4 8 Sudoeste 12 Oeste 0 -- -- 45
2020-01-13 13:00:00 8.7 8 Oeste 11 Oeste 0 -- -- 54
2020-01-13 12:00:00 9.1 3 Sudoeste 6 Oeste 0 -- -- 58
2020-01-13 11:00:00 6.2 2 Sudeste 5 Este 0 -- -- 64
2020-01-13 10:00:00 3.6 2 Sudeste 6 Oeste 0 -- -- 71
2020-01-13 09:00:00 1 0 Calma 6 Norte 0 -- -- 79
2020-01-13 08:00:00 -0.3 0 Calma 6 Nordeste 0 -- -- 82
2020-01-13 07:00:00 0.1 5 Nordeste 7 Nordeste 0 -- -- 79
2020-01-13 06:00:00 0.2 0 Calma 8 Nordeste 0 -- -- 78
2020-01-13 05:00:00 0.4 4 Nordeste 8 Nordeste 0 -- -- 79
2020-01-13 04:00:00 1.7 5 Noroeste 9 Noroeste 0 -- -- 70
2020-01-13 03:00:00 0.9 3 Nordeste 11 Oeste 0 -- -- 72
2020-01-13 02:00:00 0.9 3 Noroeste 6 Norte 0 -- -- 72
2020-01-13 01:00:00 1.4 2 Norte 10 Norte 0 -- -- 73
2020-01-13 00:00:00 2.3 5 Norte 10 Norte 0 -- -- 70
2020-01-12 23:00:00 1.9 5 Norte 8 Noroeste 0 -- -- 74
2020-01-12 22:00:00 3.6 7 Noroeste 16 Noroeste 0 -- -- 71
2020-01-12 21:00:00 2.3 3 Norte 8 Noroeste 0 -- -- 83
2020-01-12 20:00:00 2.8 0 Calma 4 Norte 0 -- -- 81
2020-01-12 19:00:00 3.8 0 Calma 8 Noroeste 0 -- -- 77
2020-01-12 18:00:00 5.8 4 Norte 9 Oeste 0 -- -- 67
2020-01-12 17:00:00 10.2 5 Oeste 12 Oeste 0 -- -- 51
2020-01-12 16:00:00 11.2 6 Oeste 15 Oeste 0 -- -- 54
2020-01-12 15:00:00 11.8 6 Noroeste 11 Oeste 0 -- -- 55
2020-01-12 14:00:00 11.6 4 Oeste 10 Sudoeste 0 -- -- 57
2020-01-12 13:00:00 10 5 Sudeste 8 Sudoeste 0 -- -- 49
2020-01-12 12:00:00 8.3 3 Sur 7 Sur 0 -- -- 60
2020-01-12 11:00:00 5 3 Sur 10 Oeste 0 -- -- 88
2020-01-12 10:00:00 2.7 3 Oeste 5 Norte 0 -- -- 97
2020-01-12 09:00:00 0.4 0 Calma 5 Norte 0 -- -- 100
2020-01-12 08:00:00 -1 0 Calma 3 Oeste 0 -- -- 99
2020-01-12 07:00:00 -1 3 Nordeste 5 Norte 0 -- -- 99
2020-01-12 06:00:00 -1.2 0 Calma 5 Oeste 0 -- -- 99
2020-01-12 05:00:00 -1 0 Calma 4 Nordeste 0 -- -- 99
2020-01-12 04:00:00 -0.7 0 Calma 4 Norte 0 -- -- 99
2020-01-12 03:00:00 0.1 0 Calma 6 Nordeste 0 -- -- 99
2020-01-12 02:00:00 -0.1 2 Este 6 Norte 0 -- -- 99
2020-01-12 01:00:00 0.3 0 Calma 7 Norte 0 -- -- 99
2020-01-12 00:00:00 0.1 2 Oeste 5 Norte 0 -- -- 98
2020-01-11 23:00:00 0.7 0 Calma 4 Norte 0 -- -- 97
2020-01-11 22:00:00 0.4 0 Calma 4 Nordeste 0 -- -- 96
2020-01-11 21:00:00 0.8 2 Nordeste 6 Norte 0 -- -- 96
2020-01-11 20:00:00 1.1 3 Norte 5 Nordeste 0 -- -- 94
2020-01-11 19:00:00 2 0 Calma 8 Noroeste 0 -- -- 92
2020-01-11 18:00:00 3.7 4 Norte 12 Noroeste 0 -- -- 88
2020-01-11 17:00:00 6.4 8 Oeste 13 Oeste 0 -- -- 84
2020-01-11 16:00:00 7.1 8 Oeste 13 Oeste 0 -- -- 85
2020-01-11 15:00:00 5.8 4 Sudoeste 9 Oeste 0 -- -- 98
2020-01-11 14:00:00 3.3 3 Sudoeste 6 Sudeste 0 -- -- 100
2020-01-11 13:00:00 1.4 3 Oeste 10 Oeste 0 -- -- 100
2020-01-11 12:00:00 0.5 6 Sudoeste 12 Sudoeste 0 -- -- 100
2020-01-11 11:00:00 0.4 3 Oeste 13 Oeste 0 -- -- 100
2020-01-11 10:00:00 0.5 2 Sudoeste 10 Sur 0 -- -- 100
2020-01-11 09:00:00 0.3 3 Sudoeste 9 Oeste 0 -- -- 100
2020-01-11 08:00:00 0.8 3 Oeste 8 Sudoeste 0 -- -- 100
2020-01-11 07:00:00 1.1 4 Oeste 8 Sudoeste 0 -- -- 100
2020-01-11 06:00:00 1.2 2 Nordeste 6 Nordeste 0 -- -- 100
2020-01-11 05:00:00 1.9 3 Oeste 11 Oeste 0 -- -- 100
2020-01-11 04:00:00 1.7 4 Sudoeste 15 Oeste 0 -- -- 100
2020-01-11 03:00:00 0 4 Oeste 11 Oeste 0 -- -- 99
2020-01-11 02:00:00 0.4 3 Este 5 Este 0 -- -- 99
2020-01-11 01:00:00 0.7 3 Este 13 Oeste 0.2 -- -- 98
2020-01-11 00:00:00 1.3 3 Noroeste 9 Oeste 0 -- -- 98
2020-01-10 23:00:00 1.9 2 Oeste 6 Norte 0 -- -- 98
2020-01-10 22:00:00 2.2 0 Calma 8 Oeste 0 -- -- 97
2020-01-10 21:00:00 3 2 Nordeste 10 Este 0 -- -- 97
2020-01-10 20:00:00 3.5 2 Este 10 Sudoeste 0 -- -- 96
2020-01-10 19:00:00 3.7 2 Noroeste 9 Oeste 0 -- -- 93
2020-01-10 18:00:00 5.3 2 Noroeste 13 Oeste 0 -- -- 89
2020-01-10 17:00:00 6.6 4 Noroeste 18 Oeste 0 -- -- 88
2020-01-10 16:00:00 7.6 11 Oeste 21 Oeste 0 -- -- 88
2020-01-10 15:00:00 7.8 8 Oeste 17 Oeste 0 -- -- 90
2020-01-10 14:00:00 5.4 4 Oeste 11 Norte 0 -- -- 97
2020-01-10 13:00:00 4.9 4 Norte 12 Nordeste 0 -- -- 96
2020-01-10 12:00:00 4.3 4 Noroeste 10 Oeste 0.6 -- -- 96
2020-01-10 11:00:00 4 0 Calma 12 Este 4 -- -- 95
2020-01-10 10:00:00 4.2 6 Este 17 Este 2.2 -- -- 95
2020-01-10 09:00:00 4.8 6 Este 15 Este 2.2 -- -- 95
2020-01-10 08:00:00 5.1 0 Calma 5 Noroeste 1.6 -- -- 95
2020-01-10 07:00:00 5.3 0 Calma 6 Oeste 1 -- -- 92
2020-01-10 06:00:00 5.6 3 Oeste 7 Este 0 -- -- 86
2020-01-10 05:00:00 5.3 3 Nordeste 6 Este 0 -- -- 86
2020-01-10 04:00:00 5.2 3 Norte 5 Sudeste 0 -- -- 87
2020-01-10 03:00:00 5.2 0 Calma 4 Oeste 0 -- -- 86
2020-01-10 02:00:00 4.7 0 Calma 5 Nordeste 0 -- -- 86
2020-01-10 01:00:00 4.8 0 Calma 9 Oeste 0 -- -- 82
2020-01-10 00:00:00 5.7 3 Oeste 18 Oeste 0 -- -- 81
2020-01-09 23:00:00 5.7 6 Oeste 14 Oeste 0 -- -- 80
2020-01-09 22:00:00 5.6 6 Noroeste 14 Oeste 0 -- -- 83
2020-01-09 21:00:00 5.8 6 Oeste 12 Oeste 0 -- -- 85
2020-01-09 20:00:00 6.1 4 Oeste 10 Oeste 0 -- -- 87
2020-01-09 19:00:00 6.7 3 Sudoeste 8 Noroeste 0 -- -- 84
2020-01-09 18:00:00 8.9 4 Oeste 12 Oeste 0 -- -- 71
2020-01-09 17:00:00 11 10 Oeste 19 Sudoeste 0 -- -- 63
2020-01-09 16:00:00 12.1 13 Oeste 24 Oeste 0 -- -- 56
2020-01-09 15:00:00 12.4 14 Oeste 26 Oeste 0 -- -- 47
2020-01-09 14:00:00 12.7 10 Oeste 21 Oeste 0 -- -- 45
2020-01-09 13:00:00 11.9 10 Oeste 19 Sudoeste 0 -- -- 68
2020-01-09 12:00:00 11.3 5 Sudoeste 13 Oeste 0 -- -- 70
2020-01-09 11:00:00 9.7 6 Oeste 15 Oeste 0 -- -- 76
2020-01-09 10:00:00 7.7 0 Calma 3 Sudoeste 0 -- -- 86
2020-01-09 09:00:00 4.7 0 Calma 2 Norte 0 -- -- 96
2020-01-09 08:00:00 3.7 0 Calma 2 Noroeste 0 -- -- 96
2020-01-09 07:00:00 3.8 0 Calma 3 Nordeste 0 -- -- 96
2020-01-09 06:00:00 3.6 0 Calma 5 Norte 0 -- -- 96
2020-01-09 05:00:00 3.9 3 Norte 5 Norte 0 -- -- 96
2020-01-09 04:00:00 4.2 3 Noroeste 6 Norte 0 -- -- 97
2020-01-09 03:00:00 4.5 0 Calma 5 Oeste 0 -- -- 96
2020-01-09 02:00:00 4.3 3 Norte 5 Norte 0 -- -- 94
2020-01-09 01:00:00 4.9 0 Calma 5 Norte 0 -- -- 93
2020-01-09 00:00:00 5.3 0 Calma 4 Norte 0 -- -- 94
2020-01-08 23:00:00 5.4 2 Nordeste 6 Norte 0 -- -- 94
2020-01-08 22:00:00 5.4 2 Nordeste 5 Norte 0 -- -- 92
2020-01-08 21:00:00 6.3 3 Norte 5 Norte 0 -- -- 90
2020-01-08 20:00:00 7.3 3 Nordeste 6 Este 0 -- -- 88
2020-01-08 19:00:00 8 4 Nordeste 6 Nordeste 0 -- -- 84
2020-01-08 18:00:00 9.5 3 Este 9 Sudeste 0 -- -- 78
2020-01-08 17:00:00 13.3 4 Oeste 12 Oeste 0 -- -- 57
2020-01-08 16:00:00 13.7 9 Oeste 15 Oeste 0 -- -- 57
2020-01-08 15:00:00 13.5 10 Oeste 15 Oeste 0 -- -- 58
2020-01-08 14:00:00 14 6 Oeste 16 Oeste 0 -- -- 59
2020-01-08 13:00:00 13.4 6 Sudoeste 13 Oeste 0 -- -- 60
2020-01-08 12:00:00 12.1 6 Oeste 14 Oeste 0 -- -- 57
2020-01-08 11:00:00 10.8 8 Oeste 13 Oeste 0 -- -- 65
2020-01-08 10:00:00 9.4 2 Sudoeste 6 Este 0 -- -- 78
2020-01-08 09:00:00 7.2 3 Este 9 Este 0 -- -- 76
2020-01-08 08:00:00 6.1 3 Sudeste 9 Este 0 -- -- 63
2020-01-08 07:00:00 7.1 5 Nordeste 8 Este 0 -- -- 55
2020-01-08 06:00:00 8 4 Nordeste 8 Este 0 -- -- 46
2020-01-08 05:00:00 5.7 3 Nordeste 7 Norte 0 -- -- 53
2020-01-08 04:00:00 6.5 0 Calma 8 Norte 0 -- -- 56
2020-01-08 03:00:00 6.8 5 Norte 9 Norte 0 -- -- 64
2020-01-08 02:00:00 6.3 3 Noroeste 8 Norte 0 -- -- 52
2020-01-08 01:00:00 6.3 3 Norte 6 Noroeste 0 -- -- 48
2020-01-08 00:00:00 6.6 4 Norte 6 Norte 0 -- -- 47
2020-01-07 23:00:00 7.1 4 Norte 6 Norte 0 -- -- 50
2020-01-07 22:00:00 7.3 3 Norte 6 Norte 0 -- -- 56
2020-01-07 21:00:00 6.2 3 Norte 6 Norte 0 -- -- 59
2020-01-07 20:00:00 6.1 0 Calma 4 Norte 0 -- -- 70
2020-01-07 19:00:00 6.7 3 Noroeste 5 Nordeste 0 -- -- 73
2020-01-07 18:00:00 8.7 2 Nordeste 6 Nordeste 0 -- -- 67
2020-01-07 17:00:00 12.3 3 Sudoeste 8 Sudoeste 0 -- -- 60
2020-01-07 16:00:00 12.8 5 Oeste 11 Sudoeste 0 -- -- 52
2020-01-07 15:00:00 12 9 Oeste 15 Oeste 0 -- -- 57
2020-01-07 14:00:00 10.7 11 Oeste 15 Oeste 0 -- -- 63
2020-01-07 13:00:00 11.1 10 Oeste 16 Oeste 0 -- -- 53
2020-01-07 12:00:00 10.8 7 Sudoeste 11 Oeste 0 -- -- 54
2020-01-07 11:00:00 8.1 2 Sudoeste 7 Sudoeste 0 -- -- 75
2020-01-07 10:00:00 6.7 3 Sudoeste 6 Nordeste 0 -- -- 77
2020-01-07 09:00:00 4.6 4 Norte 9 Norte 0 -- -- 90
2020-01-07 08:00:00 3.4 8 Norte 10 Noroeste 0 -- -- 90
2020-01-07 07:00:00 3.3 5 Norte 9 Norte 0 -- -- 96
2020-01-07 06:00:00 3 5 Noroeste 9 Noroeste 0 -- -- 98
2020-01-07 05:00:00 2.7 3 Norte 6 Norte 0 -- -- 97
2020-01-07 04:00:00 2.6 2 Norte 8 Noroeste 0 -- -- 97
2020-01-07 03:00:00 3.1 0 Calma 7 Noroeste 0 -- -- 95
2020-01-07 02:00:00 3.3 2 Nordeste 7 Norte 0 -- -- 95
2020-01-07 01:00:00 2.5 3 Norte 6 Nordeste 0 -- -- 92
2020-01-07 00:00:00 3 0 Calma 7 Nordeste 0 -- -- 88
2020-01-06 23:00:00 3.1 0 Calma 5 Norte 0 -- -- 86
2020-01-06 22:00:00 3.7 2 Norte 6 Norte 0 -- -- 86
2020-01-06 21:00:00 4.5 4 Norte 9 Noroeste 0 -- -- 84
2020-01-06 20:00:00 4.7 0 Calma 4 Nordeste 0 -- -- 83
2020-01-06 19:00:00 5.6 0 Calma 4 Noroeste 0 -- -- 76
2020-01-06 18:00:00 7.6 3 Noroeste 10 Oeste 0 -- -- 67
2020-01-06 17:00:00 12 6 Oeste 10 Oeste 0 -- -- 51
2020-01-06 16:00:00 12.5 8 Oeste 13 Oeste 0 -- -- 49
2020-01-06 15:00:00 12.7 6 Oeste 13 Oeste 0 -- -- 51
2020-01-06 14:00:00 12.4 7 Oeste 12 Oeste 0 -- -- 52
2020-01-06 13:00:00 11.8 7 Oeste 12 Sudoeste 0 -- -- 48
2020-01-06 12:00:00 10.9 6 Sudoeste 10 Sudoeste 0 -- -- 56
2020-01-06 11:00:00 9.3 3 Sudeste 6 Sudeste 0 -- -- 58
2020-01-06 10:00:00 6.2 0 Calma 5 Norte 0 -- -- 68